Time;durP1;ratioP1;P1;durP2;ratioP2;P2;SDS_P1;SDS_P2;PMS_P1;PMS_P2;Temp;Humidity;BMP_temperature;BMP_pressure;BME280_temperature;BME280_humidity;BME280_pressure;Samples;Min_cycle;Max_cycle;Signal;HPM_P1;HPM_P2
2023/04/05 00:09:43;;;;;;;5.60;3.38;;;;;;;23.65;43.42;101571.72;20748494;28;20061;-69
2023/04/05 00:19:50;;;;;;;7.03;3.38;;;;;;;23.59;43.36;101570.88;20747904;28;20045;-69
2023/04/05 00:29:51;;;;;;;10.05;4.03;;;;;;;23.64;43.15;101599.91;20746666;28;20042;-72
2023/04/05 00:39:53;;;;;;;5.55;3.58;;;;;;;23.60;42.98;101610.81;20748901;28;20413;-68
2023/04/05 00:50:01;;;;;;;14.90;4.20;;;;;;;23.64;43.17;101652.97;20752758;28;20050;-66
2023/04/05 01:00:08;;;;;;;10.30;4.10;;;;;;;23.66;43.40;101681.53;20765242;28;20041;-70
2023/04/05 01:10:13;;;;;;;13.77;3.47;;;;;;;23.65;42.97;101674.28;20740668;28;20053;-70
2023/04/05 01:20:15;;;;;;;13.75;3.95;;;;;;;23.76;43.00;101701.91;20772274;28;20119;-69
2023/04/05 01:30:25;;;;;;;6.90;3.35;;;;;;;23.78;42.74;101707.22;20772023;28;20072;-69
2023/04/05 01:40:31;;;;;;;8.60;3.65;;;;;;;23.75;42.77;101722.59;20718713;28;20463;-70
2023/04/05 01:50:36;;;;;;;9.38;3.30;;;;;;;23.84;42.93;101729.28;20773662;28;20045;-69
2023/04/05 02:00:38;;;;;;;5.43;3.40;;;;;;;23.80;43.00;101730.13;20740631;28;20033;-70
2023/04/05 02:10:55;;;;;;;5.20;3.28;;;;;;;23.84;42.90;101762.81;20756856;28;20104;-69
2023/04/05 02:21:09;;;;;;;6.18;3.33;;;;;;;23.90;42.76;101765.63;20752753;28;20444;-70
2023/04/05 02:31:23;;;;;;;10.30;3.30;;;;;;;23.80;44.54;101777.66;20741220;28;20042;-69
2023/04/05 02:41:35;;;;;;;9.60;3.20;;;;;;;23.70;44.58;101761.72;20746742;28;20054;-68
2023/04/05 02:51:50;;;;;;;8.73;2.95;;;;;;;23.52;45.50;101720.34;20750397;28;20041;-68
2023/04/05 03:01:52;;;;;;;12.82;3.15;;;;;;;23.59;45.21;101727.34;20733649;28;20456;-68
2023/04/05 03:12:09;;;;;;;7.88;3.40;;;;;;;23.55;46.50;101742.97;20750285;28;20034;-67
2023/04/05 03:22:20;;;;;;;6.90;3.70;;;;;;;23.18;46.89;101703.28;20746505;28;20455;-68
2023/04/05 03:32:28;;;;;;;13.52;3.63;;;;;;;23.38;46.95;101736.00;20734512;28;20072;-69
2023/04/05 03:42:43;;;;;;;11.10;3.93;;;;;;;23.27;46.67;101718.38;20744595;28;20409;-70
2023/04/05 03:52:54;;;;;;;8.63;3.45;;;;;;;23.48;46.83;101764.75;20744107;28;20049;-70
2023/04/05 04:03:03;;;;;;;12.73;4.15;;;;;;;23.50;46.83;101767.25;20740149;28;20042;-70
2023/04/05 04:13:13;;;;;;;24.65;4.25;;;;;;;23.67;45.06;101776.25;20735632;28;20046;-71
2023/04/05 04:23:23;;;;;;;9.38;4.00;;;;;;;23.71;45.03;101796.94;20709335;28;20341;-69
2023/04/05 04:33:34;;;;;;;9.77;3.40;;;;;;;23.66;44.52;101810.91;20793365;28;20045;-68
2023/04/05 04:43:43;;;;;;;7.32;3.78;;;;;;;23.56;44.56;101794.94;20781997;28;20100;-69
2023/04/05 04:53:50;;;;;;;5.70;2.78;;;;;;;23.74;44.03;101829.06;20759706;28;20046;-68
2023/04/05 05:04:00;;;;;;;6.75;3.47;;;;;;;23.78;43.86;101833.84;20775025;28;20459;-69
2023/04/05 05:14:18;;;;;;;;;;;;;;;;;;;;;
2023/04/05 05:24:29;;;;;;;10.02;3.20;;;;;;;23.80;43.48;101839.97;20774539;28;20045;-69
2023/04/05 05:34:47;;;;;;;4.93;3.05;;;;;;;23.83;43.25;101827.41;20838375;28;20041;-68
2023/04/05 05:44:52;;;;;;;7.23;3.10;;;;;;;23.88;43.12;101818.19;20837860;28;20385;-69
2023/04/05 05:54:54;;;;;;;4.30;2.75;;;;;;;23.85;43.14;101800.00;20762222;28;20042;-68
2023/04/05 06:05:25;;;;;;;7.00;3.13;;;;;;;23.75;43.37;101792.47;20755726;28;20096;-67
2023/04/05 06:15:47;;;;;;;6.70;2.95;;;;;;;23.77;43.36;101797.75;20754938;28;20042;-69
2023/04/05 06:25:56;;;;;;;4.70;2.63;;;;;;;23.67;43.73;101804.19;20773898;28;20038;-68
2023/04/05 06:36:08;;;;;;;6.28;2.47;;;;;;;23.75;43.23;101809.22;20751600;28;20505;-68
2023/04/05 06:46:11;;;;;;;5.13;2.45;;;;;;;23.79;42.98;101804.75;20791490;28;20052;-68
2023/04/05 06:56:15;;;;;;;4.95;2.40;;;;;;;23.78;43.14;101821.81;20771076;28;20403;-69
2023/04/05 07:06:22;;;;;;;5.38;2.65;;;;;;;23.79;43.32;101841.09;20750203;28;20042;-69
2023/04/05 07:16:48;;;;;;;4.22;2.47;;;;;;;23.56;44.10;101827.63;20746801;28;20543;-68
2023/04/05 07:26:51;;;;;;;5.25;2.70;;;;;;;23.63;43.73;101853.31;20681156;28;20105;-68
2023/04/05 07:36:53;;;;;;;5.38;2.90;;;;;;;23.75;43.75;101873.50;20747660;28;20050;-69
2023/04/05 07:46:58;;;;;;;3.00;2.10;;;;;;;23.77;43.55;101867.63;20721247;28;20474;-69
2023/04/05 07:56:59;;;;;;;5.72;2.60;;;;;;;23.18;43.46;101799.06;20658862;28;20111;-68
2023/04/05 08:07:01;;;;;;;3.50;1.88;;;;;;;23.59;42.80;101867.03;20746496;28;20046;-69
2023/04/05 08:17:02;;;;;;;6.15;2.65;;;;;;;23.61;43.51;101880.72;20745803;28;20045;-67
2023/04/05 08:27:04;;;;;;;5.47;2.30;;;;;;;23.57;43.74;101860.03;20744917;28;20049;-69
2023/04/05 08:37:05;;;;;;;5.57;2.80;;;;;;;23.67;43.76;101868.47;20745372;28;20046;-68
2023/04/05 08:47:09;;;;;;;4.72;3.20;;;;;;;23.71;43.57;101851.97;20744775;28;20030;-67
2023/04/05 08:57:10;;;;;;;3.50;2.28;;;;;;;23.69;43.59;101843.88;20744083;28;20057;-68
2023/04/05 09:07:16;;;;;;;7.07;2.95;;;;;;;23.66;44.30;101860.38;20718111;28;20482;-68
2023/04/05 09:17:18;;;;;;;7.60;2.95;;;;;;;23.71;44.02;101886.34;20681282;28;20046;-69
2023/04/05 09:27:19;;;;;;;4.68;3.03;;;;;;;23.71;43.91;101897.53;20758159;28;20104;-68
2023/04/05 09:37:24;;;;;;;4.82;2.80;;;;;;;23.58;43.77;101909.19;20754240;28;20362;-67
2023/04/05 09:47:35;;;;;;;6.00;2.72;;;;;;;23.42;43.92;101927.88;20756810;28;20473;-68
2023/04/05 09:57:38;;;;;;;3.20;2.35;;;;;;;23.64;44.10;101964.03;20793793;28;20049;-68
2023/04/05 10:07:40;;;;;;;4.78;2.67;;;;;;;23.62;44.15;101959.78;20798225;28;20050;-69
2023/04/05 10:17:54;;;;;;;5.07;2.83;;;;;;;23.64;43.94;101983.59;20738804;28;20049;-69
2023/04/05 10:28:10;;;;;;;8.05;3.03;;;;;;;23.65;44.47;101999.25;20713094;28;20153;-68
2023/04/05 10:38:20;;;;;;;5.53;2.90;;;;;;;23.55;44.22;102001.97;20753871;28;20400;-69
2023/04/05 10:48:53;;;;;;;3.88;3.40;;;;;;;23.47;45.97;102014.50;20749233;28;20455;-69
2023/04/05 10:58:55;;;;;;;14.18;4.13;;;;;;;23.51;46.26;102023.19;20774147;28;20068;-69
2023/04/05 11:09:15;;;;;;;14.65;3.38;;;;;;;23.14;46.82;101987.81;20830494;28;20057;-68
2023/04/05 11:19:17;;;;;;;9.18;3.40;;;;;;;23.14;47.47;102015.72;20827020;28;20405;-68
2023/04/05 11:29:18;;;;;;;7.35;4.13;;;;;;;23.13;47.83;102041.94;20804921;28;20100;-68
2023/04/05 11:39:22;;;;;;;9.80;4.70;;;;;;;23.06;47.98;102053.38;20748482;28;20421;-68
2023/04/05 11:49:24;;;;;;;9.00;4.70;;;;;;;23.05;47.87;102067.59;20754040;28;20108;-68
2023/04/05 11:59:31;;;;;;;14.73;6.38;;;;;;;22.91;47.42;102061.66;20745891;28;20033;-68
2023/04/05 12:09:32;;;;;;;10.77;5.95;;;;;;;22.89;47.36;102080.59;20746160;28;20042;-68
2023/04/05 12:19:36;;;;;;;13.02;6.22;;;;;;;22.88;47.15;102084.47;20744826;28;20490;-69
2023/04/05 12:29:40;;;;;;;13.35;6.63;;;;;;;22.82;47.46;102097.53;20743548;28;20068;-68
2023/04/05 12:39:45;;;;;;;12.77;6.47;;;;;;;22.26;47.44;102007.75;20771193;28;20530;-67
2023/04/05 12:49:46;;;;;;;10.73;6.13;;;;;;;22.77;47.89;102099.44;20811093;28;20033;-68
2023/04/05 12:59:47;;;;;;;11.85;5.35;;;;;;;22.66;47.79;102094.88;20842147;28;20025;-68
2023/04/05 13:09:49;;;;;;;11.07;5.53;;;;;;;22.68;47.89;102112.19;20813983;28;20041;-68
2023/04/05 13:19:50;;;;;;;10.65;5.90;;;;;;;22.67;47.83;102114.13;20811092;28;20045;-68
2023/04/05 13:29:52;;;;;;;10.93;5.95;;;;;;;22.64;47.56;102106.31;20823349;28;20049;-68
2023/04/05 13:39:56;;;;;;;9.25;5.85;;;;;;;22.56;47.77;102104.00;20792329;28;20570;-68
2023/04/05 13:49:58;;;;;;;11.95;5.95;;;;;;;22.64;48.53;102117.47;20797250;28;20045;-67
2023/04/05 13:59:59;;;;;;;12.00;7.03;;;;;;;22.68;50.17;102106.59;20836141;28;20053;-68
2023/04/05 14:10:00;;;;;;;12.35;6.22;;;;;;;22.72;50.94;102125.34;20823172;28;20099;-68
2023/04/05 14:20:02;;;;;;;14.98;5.82;;;;;;;22.60;50.58;102126.63;20779876;28;20144;-68
2023/04/05 14:30:03;;;;;;;14.10;5.05;;;;;;;22.55;50.21;102135.78;20751432;28;20393;-68
2023/04/05 14:40:05;;;;;;;10.73;4.82;;;;;;;22.58;49.59;102151.97;20755458;28;20045;-68
2023/04/05 14:50:07;;;;;;;7.47;4.53;;;;;;;22.53;49.57;102110.09;20750534;28;20081;-69
2023/04/05 15:00:12;;;;;;;8.48;4.18;;;;;;;22.11;48.97;102057.75;20750608;28;20050;-68
2023/04/05 15:10:14;;;;;;;6.15;3.90;;;;;;;22.41;48.77;102112.22;20749197;28;20045;-68
2023/04/05 15:20:15;;;;;;;6.93;4.30;;;;;;;22.46;48.56;102126.22;20749679;28;20045;-67
2023/04/05 15:30:17;;;;;;;6.53;4.53;;;;;;;22.45;48.72;102121.72;20748288;28;20069;-68
2023/04/05 15:40:18;;;;;;;5.32;3.55;;;;;;;22.40;48.58;102132.81;20748187;28;20555;-68
2023/04/05 15:50:20;;;;;;;5.43;3.90;;;;;;;22.38;48.73;102119.16;20747150;28;20477;-68
2023/04/05 16:00:26;;;;;;;3.95;3.65;;;;;;;21.75;48.26;102009.97;20746640;28;20053;-66
2023/04/05 16:10:27;;;;;;;4.88;3.30;;;;;;;22.35;47.87;102074.19;20746113;28;20061;-68
2023/04/05 16:20:29;;;;;;;3.33;3.03;;;;;;;22.54;48.13;102083.88;20744765;28;20410;-68
2023/04/05 16:30:31;;;;;;;3.08;2.78;;;;;;;22.53;47.95;102045.94;20745546;28;20042;-68
2023/04/05 16:40:32;;;;;;;3.60;3.08;;;;;;;22.57;47.84;102020.03;20744690;28;20052;-68
2023/04/05 16:50:34;;;;;;;4.00;2.72;;;;;;;22.55;48.07;101977.63;20744389;28;20046;-69
2023/04/05 17:00:36;;;;;;;5.13;3.83;;;;;;;22.71;47.92;101978.56;20744192;28;20050;-68
2023/04/05 17:10:40;;;;;;;5.05;3.15;;;;;;;22.64;47.94;101950.06;20744026;28;20400;-69
2023/04/05 17:20:41;;;;;;;4.15;3.20;;;;;;;22.78;48.07;101940.13;20743736;28;20108;-68
2023/04/05 17:30:43;;;;;;;3.92;2.90;;;;;;;22.67;48.00;101909.63;20743776;28;20061;-68
2023/04/05 17:40:45;;;;;;;3.40;3.10;;;;;;;22.80;48.40;101909.97;20757580;28;20037;-68
2023/04/05 17:50:49;;;;;;;3.70;3.40;;;;;;;22.63;48.15;101887.00;20756650;28;20057;-69
2023/04/05 18:00:53;;;;;;;5.40;4.22;;;;;;;22.89;48.22;101903.88;20756019;28;20038;-68
2023/04/05 18:10:58;;;;;;;4.97;4.25;;;;;;;22.72;48.00;101848.25;20755007;28;20029;-68
2023/04/05 18:21:03;;;;;;;7.93;4.90;;;;;;;22.96;48.17;101862.66;20754090;28;20041;-66
2023/04/05 18:31:07;;;;;;;5.22;4.72;;;;;;;22.96;48.14;101834.75;20752955;28;20097;-68
2023/04/05 18:41:14;;;;;;;6.57;5.00;;;;;;;22.96;48.21;101801.25;20752543;28;20042;-68
2023/04/05 18:51:19;;;;;;;6.15;4.55;;;;;;;23.01;48.03;101809.63;20750703;28;20049;-69
2023/04/05 19:01:21;;;;;;;7.35;4.30;;;;;;;23.05;48.55;101799.59;20749966;28;20050;-73
2023/04/05 19:11:25;;;;;;;10.85;4.85;;;;;;;23.09;48.43;101795.13;20737401;28;20045;-72
2023/04/05 19:21:26;;;;;;;6.30;4.38;;;;;;;23.09;48.09;101781.16;20723411;28;20092;-73
2023/04/05 19:31:28;;;;;;;6.85;4.22;;;;;;;23.11;48.05;101767.78;20666979;28;20047;-73
2023/04/05 19:41:31;;;;;;;5.95;4.32;;;;;;;23.21;47.90;101765.00;20739860;28;20042;-73
2023/04/05 19:51:34;;;;;;;7.97;3.90;;;;;;;23.02;47.57;101724.78;20729705;28;20038;-73
2023/04/05 20:01:38;;;;;;;5.25;4.00;;;;;;;23.20;48.00;101738.22;20744540;28;20543;-73
2023/04/05 20:11:46;;;;;;;5.85;4.00;;;;;;;23.25;47.94;101732.63;20743252;28;20041;-74
2023/04/05 20:21:48;;;;;;;9.05;4.13;;;;;;;23.11;47.83;101691.56;20698171;28;20105;-73
2023/04/05 20:31:49;;;;;;;6.45;3.78;;;;;;;22.99;48.28;101709.41;20707921;28;20483;-73
2023/04/05 20:41:51;;;;;;;8.15;4.50;;;;;;;23.11;47.77;101742.66;20736758;28;20105;-72
2023/04/05 20:51:56;;;;;;;8.40;4.50;;;;;;;23.13;47.58;101762.75;20737594;28;20555;-72
2023/04/05 21:01:57;;;;;;;9.50;4.50;;;;;;;23.06;47.70;101735.13;20748678;28;20401;-72
2023/04/05 21:11:59;;;;;;;8.85;4.30;;;;;;;23.08;47.46;101735.66;20750462;28;20045;-71
2023/04/05 21:22:00;;;;;;;8.23;4.32;;;;;;;23.02;47.56;101727.56;20748934;28;20096;-71
2023/04/05 21:32:01;;;;;;;5.60;3.63;;;;;;;23.04;47.71;101742.06;20760115;28;20108;-68
2023/04/05 21:42:03;;;;;;;7.53;5.15;;;;;;;23.05;47.49;101757.72;20737292;28;20034;-72
2023/04/05 21:52:06;;;;;;;8.85;4.70;;;;;;;22.99;46.96;101772.78;20720353;28;20065;-71
2023/04/05 22:02:08;;;;;;;10.15;4.65;;;;;;;22.95;47.18;101766.06;20729824;28;20050;-71
2023/04/05 22:12:09;;;;;;;32.38;6.50;;;;;;;22.90;47.05;101769.66;20743573;28;20053;-71
2023/04/05 22:22:12;;;;;;;7.25;4.68;;;;;;;22.96;47.10;101767.75;20738541;28;20038;-71
2023/04/05 22:32:14;;;;;;;8.93;5.03;;;;;;;22.84;46.78;101738.09;20749449;28;20088;-70
2023/04/05 22:42:15;;;;;;;6.88;4.65;;;;;;;22.39;46.67;101691.34;20748825;28;20571;-71
2023/04/05 22:52:17;;;;;;;6.65;4.85;;;;;;;22.82;46.82;101768.25;20766945;28;20781;-70
2023/04/05 23:02:19;;;;;;;9.40;5.50;;;;;;;22.89;46.79;101783.88;20749623;28;20374;-69
2023/04/05 23:12:21;;;;;;;15.38;5.30;;;;;;;22.67;47.17;101745.84;20728877;28;20054;-71
2023/04/05 23:22:22;;;;;;;13.13;5.70;;;;;;;22.67;47.37;101734.69;20747086;28;20088;-71
2023/04/05 23:32:26;;;;;;;11.55;5.25;;;;;;;22.81;47.73;101760.97;20749336;28;20108;-71
2023/04/05 23:42:28;;;;;;;7.60;4.97;;;;;;;22.84;47.79;101770.75;20744863;28;20030;-71
2023/04/05 23:52:30;;;;;;;8.07;4.93;;;;;;;22.84;47.65;101777.16;20732549;28;20349;-71
